Terminal Aerodrome Forecast
Issued by NWS

Home | Current Version | Previous Version | Graphics & Text | Print | Product List | Glossary On
Versions: 1 2 3 4 5 6 7 8 9 10 11 12 13 14 15 16 17 18
000
FTUS43 KABR 021603 AAB
TAFPIR
TAF AMD
KPIR 021603Z 0216/0312 VRB03KT P6SM SKC
      TEMPO 0216/0217 3SM BR BKN001
     FM021700 14008KT P6SM SCT250=

USA.gov is the U.S. government's official web portal to all federal, state and local government web resources and services.